createdAt,value
2023-05-14T00:02:13.242Z,101566.34
2023-05-14T00:04:43.081Z,101559.06
2023-05-14T00:07:11.795Z,101549.28
2023-05-14T00:09:39.609Z,101543.25
2023-05-14T00:12:08.102Z,101552.31
2023-05-14T00:14:35.967Z,101542.41
2023-05-14T00:17:06.958Z,101556.66
2023-05-14T00:19:34.903Z,101563.69
2023-05-14T00:22:04.233Z,101559.28
2023-05-14T00:24:32.232Z,101556.56
2023-05-14T00:27:00.036Z,101547.59
2023-05-14T00:29:28.053Z,101549.03
2023-05-14T00:31:55.977Z,101526.78
2023-05-14T00:34:23.912Z,101517.19
2023-05-14T00:36:52.195Z,101519.06
2023-05-14T00:39:21.473Z,101541.13
2023-05-14T00:41:49.647Z,101509.31
2023-05-14T00:44:17.457Z,101522.97
2023-05-14T00:46:45.452Z,101535.28
2023-05-14T00:49:13.442Z,101538.78
2023-05-14T00:51:42.484Z,101523.97
2023-05-14T00:54:10.599Z,101534.81
2023-05-14T00:56:40.042Z,101541.25
2023-05-14T00:59:08.052Z,101546.84
2023-05-14T01:01:37.046Z,101556.66
2023-05-14T01:04:06.048Z,101559.34
2023-05-14T01:06:43.500Z,101557.50
2023-05-14T01:09:19.040Z,101557.63
2023-05-14T01:11:56.847Z,101554.03
2023-05-14T01:14:34.249Z,101559.56
2023-05-14T01:17:06.227Z,101564.13
2023-05-14T01:19:38.535Z,101548.41
2023-05-14T01:22:08.204Z,101570.59
2023-05-14T01:24:36.205Z,101581.41
2023-05-14T01:27:11.550Z,101574.44
2023-05-14T01:29:44.318Z,101580.91
2023-05-14T01:32:13.546Z,101563.53
2023-05-14T01:34:42.207Z,101560.97
2023-05-14T01:37:13.993Z,101557.69
2023-05-14T01:39:43.261Z,101541.19
2023-05-14T01:42:12.095Z,101572.16
2023-05-14T01:44:40.200Z,101566.81
2023-05-14T01:47:08.116Z,101568.53
2023-05-14T01:49:37.150Z,101570.03
2023-05-14T01:52:05.343Z,101558.66
2023-05-14T01:54:34.742Z,101568.34
2023-05-14T01:57:02.540Z,101564.72
2023-05-14T01:59:30.572Z,101566.38
2023-05-14T02:02:01.972Z,101559.91
2023-05-14T02:04:29.866Z,101531.53
2023-05-14T02:06:57.593Z,101519.22
2023-05-14T02:09:25.692Z,101508.97
2023-05-14T02:11:55.114Z,101517.34
2023-05-14T02:14:22.896Z,101522.88
2023-05-14T02:16:51.433Z,101529.44
2023-05-14T02:19:19.249Z,101532.16
2023-05-14T02:21:47.154Z,101538.53
2023-05-14T02:24:15.111Z,101544.94
2023-05-14T02:26:43.156Z,101548.66
2023-05-14T02:29:12.361Z,101525.84
2023-05-14T02:31:40.286Z,101529.53
2023-05-14T02:34:08.112Z,101524.34
2023-05-14T02:36:36.036Z,101536.84
2023-05-14T02:39:04.625Z,101542.28
2023-05-14T02:41:32.403Z,101545.13
2023-05-14T02:44:00.217Z,101544.38
2023-05-14T02:46:29.616Z,101548.03
2023-05-14T02:48:57.684Z,101556.03
2023-05-14T02:51:26.500Z,101551.50
2023-05-14T02:53:54.325Z,101554.03
2023-05-14T02:56:22.318Z,101559.97
2023-05-14T02:58:50.097Z,101552.53
2023-05-14T03:01:18.803Z,101550.28
2023-05-14T03:03:49.870Z,101540.13
2023-05-14T03:06:18.186Z,101531.66
2023-05-14T03:08:46.181Z,101516.97
2023-05-14T03:11:14.047Z,101495.34
2023-05-14T03:13:41.836Z,101470.84
2023-05-14T03:16:09.655Z,101453.53
2023-05-14T03:18:37.519Z,101417.72
2023-05-14T03:21:06.708Z,101400.31
2023-05-14T03:23:35.166Z,101382.31
2023-05-14T03:26:03.858Z,101370.47
2023-05-14T03:28:31.961Z,101361.50
2023-05-14T03:30:59.929Z,101366.78
2023-05-14T03:33:27.751Z,101377.69
2023-05-14T03:35:55.537Z,101398.88
2023-05-14T03:38:24.650Z,101413.91
2023-05-14T03:40:52.660Z,101409.63
2023-05-14T03:43:20.468Z,101438.16
2023-05-14T03:45:52.222Z,101444.41
2023-05-14T03:48:20.586Z,101442.84
2023-05-14T03:50:48.482Z,101464.22
2023-05-14T03:53:16.783Z,101466.66
2023-05-14T03:55:46.177Z,101466.88
2023-05-14T03:58:14.722Z,101477.56
2023-05-14T04:00:42.730Z,101486.25
2023-05-14T04:03:11.265Z,101491.59
2023-05-14T04:05:43.104Z,101468.38
2023-05-14T04:08:10.822Z,101484.06
2023-05-14T04:10:38.580Z,101462.63
2023-05-14T04:13:08.203Z,101451.94
2023-05-14T04:15:39.244Z,101448.09
2023-05-14T04:18:07.426Z,101446.00
2023-05-14T04:20:35.382Z,101435.09
2023-05-14T04:23:03.125Z,101440.22
2023-05-14T04:25:31.004Z,101401.09
2023-05-14T04:27:59.060Z,101406.97
2023-05-14T04:30:28.442Z,101421.97
2023-05-14T04:32:56.404Z,101419.06
2023-05-14T04:35:25.202Z,101424.28
2023-05-14T04:37:53.277Z,101447.16
2023-05-14T04:40:22.977Z,101463.44
2023-05-14T04:42:51.121Z,101483.81
2023-05-14T04:45:19.210Z,101471.91
2023-05-14T04:47:48.552Z,101443.78
2023-05-14T04:50:16.767Z,101445.00
2023-05-14T04:52:44.564Z,101455.09
2023-05-14T04:55:12.299Z,101419.81
2023-05-14T04:57:40.081Z,101414.84
2023-05-14T05:00:10.178Z,101409.75
2023-05-14T05:02:38.093Z,101401.78
2023-05-14T05:05:07.768Z,101375.00
2023-05-14T05:07:36.942Z,101365.78
2023-05-14T05:10:04.879Z,101415.06
2023-05-14T05:12:32.706Z,101382.47
2023-05-14T05:15:00.581Z,101324.59
2023-05-14T05:17:28.489Z,101304.66
2023-05-14T05:19:56.320Z,101334.56
2023-05-14T05:22:25.783Z,101157.28
2023-05-14T05:24:53.563Z,101081.81
2023-05-14T05:27:22.090Z,101111.50
2023-05-14T05:29:49.780Z,101086.72
2023-05-14T05:32:17.646Z,101132.53
2023-05-14T05:34:45.478Z,101164.22
2023-05-14T05:37:14.883Z,101210.56
2023-05-14T05:39:44.263Z,101229.81
2023-05-14T05:42:11.925Z,101171.75
2023-05-14T05:44:39.691Z,101331.81
2023-05-14T05:47:07.622Z,101366.59
2023-05-14T05:49:36.846Z,101234.31
2023-05-14T05:52:05.097Z,101085.66
2023-05-14T05:54:33.303Z,101142.97
2023-05-14T05:57:02.503Z,101174.38
2023-05-14T05:59:30.224Z,101098.31
2023-05-14T06:01:58.009Z,101023.72
2023-05-14T06:04:25.947Z,100996.50
2023-05-14T06:06:54.252Z,100909.84
2023-05-14T06:09:22.140Z,100965.78
2023-05-14T06:11:49.946Z,100970.66
2023-05-14T06:14:19.271Z,100823.22
2023-05-14T06:16:47.138Z,100633.44
2023-05-14T06:19:15.256Z,100621.41
2023-05-14T06:21:43.070Z,100631.78
2023-05-14T06:24:11.389Z,100670.16
2023-05-14T06:26:39.064Z,100667.63
2023-05-14T06:29:06.889Z,100628.72
2023-05-14T06:31:36.078Z,100626.78
2023-05-14T06:34:03.995Z,100605.94
2023-05-14T06:36:31.712Z,100561.78
2023-05-14T06:38:59.421Z,100661.78
2023-05-14T06:41:27.179Z,100633.38
2023-05-14T06:43:55.247Z,100666.13
2023-05-14T06:46:23.059Z,100721.25
2023-05-14T06:48:52.378Z,100767.94
2023-05-14T06:51:20.183Z,100717.63
2023-05-14T06:53:48.804Z,100732.50
2023-05-14T06:56:16.595Z,100640.22
2023-05-14T06:58:44.313Z,100722.19
2023-05-14T07:01:12.180Z,100680.75
2023-05-14T07:03:40.170Z,100634.16
2023-05-14T07:06:10.357Z,100651.22
2023-05-14T07:08:40.216Z,100653.41
2023-05-14T07:11:08.188Z,100683.53
2023-05-14T07:13:36.291Z,100665.72
2023-05-14T07:16:03.981Z,100678.63
2023-05-14T07:18:31.763Z,100680.09
2023-05-14T07:20:59.491Z,100669.38
2023-05-14T07:23:28.786Z,100679.97
2023-05-14T07:25:56.550Z,100702.72
2023-05-14T07:28:24.233Z,100711.31
2023-05-14T07:30:52.016Z,100692.16
2023-05-14T07:33:19.782Z,100674.94
2023-05-14T07:35:47.610Z,100720.09
2023-05-14T07:38:15.827Z,100697.69
2023-05-14T07:40:44.992Z,100763.56
2023-05-14T07:43:12.850Z,100805.22
2023-05-14T07:45:40.838Z,100746.75
2023-05-14T07:48:09.010Z,100706.75
2023-05-14T07:50:37.994Z,100754.91
2023-05-14T07:53:05.717Z,100722.75
2023-05-14T07:55:33.412Z,100738.44
2023-05-14T07:58:02.668Z,100721.59
2023-05-14T08:00:30.724Z,100774.94
2023-05-14T08:02:58.720Z,100724.41
2023-05-14T08:05:26.682Z,100766.78
2023-05-14T08:07:54.631Z,100694.94
2023-05-14T08:10:22.516Z,100743.06
2023-05-14T08:12:51.605Z,100755.75
2023-05-14T08:15:21.042Z,100747.25
2023-05-14T08:17:48.816Z,100684.50
2023-05-14T08:20:16.578Z,100670.50
2023-05-14T08:22:44.387Z,100624.28
2023-05-14T08:25:12.566Z,100683.06
2023-05-14T08:27:41.203Z,100686.53
2023-05-14T08:30:09.755Z,100654.56
2023-05-14T08:32:39.411Z,100660.88
2023-05-14T08:35:08.288Z,100611.34
2023-05-14T08:37:36.045Z,100616.63
2023-05-14T08:40:04.066Z,100653.31
2023-05-14T08:42:32.664Z,100726.47
2023-05-14T08:45:03.140Z,100708.91
2023-05-14T08:47:32.015Z,100683.53
2023-05-14T08:50:04.436Z,100727.00
2023-05-14T08:52:32.482Z,100570.13
2023-05-14T08:55:01.412Z,100629.00
2023-05-14T08:57:31.187Z,100570.53
2023-05-14T09:00:01.297Z,100710.22
2023-05-14T09:02:30.283Z,100746.72
2023-05-14T09:05:01.948Z,100750.78
2023-05-14T09:07:30.108Z,100783.00
2023-05-14T09:09:58.057Z,100731.16
2023-05-14T09:12:26.231Z,100730.47
2023-05-14T09:14:54.163Z,100690.03
2023-05-14T09:17:22.211Z,100691.50
2023-05-14T09:19:53.161Z,100711.91
2023-05-14T09:22:23.065Z,100712.34
2023-05-14T09:25:05.066Z,100802.81
2023-05-14T09:27:34.218Z,100677.25
2023-05-14T09:30:10.817Z,100602.09
2023-05-14T09:32:46.211Z,100588.44
2023-05-14T09:35:17.650Z,100721.41
2023-05-14T09:37:48.639Z,100645.44
2023-05-14T09:40:17.642Z,100620.47
2023-05-14T09:42:45.626Z,100640.00
2023-05-14T09:45:13.774Z,100645.53
2023-05-14T09:47:41.730Z,100639.22
2023-05-14T09:50:10.050Z,100712.25
2023-05-14T09:52:38.431Z,100657.56
2023-05-14T09:55:09.024Z,100638.63
2023-05-14T09:57:37.177Z,100605.75
2023-05-14T10:00:05.851Z,100609.44
2023-05-14T10:02:38.819Z,100614.09
2023-05-14T10:05:07.981Z,100495.06
2023-05-14T10:07:41.479Z,100606.78
2023-05-14T10:10:16.424Z,100520.66
2023-05-14T10:12:48.537Z,100567.84
2023-05-14T10:15:22.654Z,100659.13
2023-05-14T10:17:55.752Z,100612.50
2023-05-14T10:20:24.682Z,100426.34
2023-05-14T10:22:52.976Z,100576.38
2023-05-14T10:25:23.202Z,100476.56
2023-05-14T10:28:02.050Z,100543.94
2023-05-14T10:30:37.141Z,100347.84
2023-05-14T10:33:09.641Z,100505.81
2023-05-14T10:36:00.043Z,100495.69
2023-05-14T10:38:29.233Z,100379.75
2023-05-14T10:41:06.257Z,100485.66
2023-05-14T10:43:39.971Z,100533.06
2023-05-14T10:46:09.633Z,100559.16
2023-05-14T10:48:38.737Z,100499.53
2023-05-14T10:51:09.248Z,100482.81
2023-05-14T10:53:39.237Z,100553.28
2023-05-14T10:56:10.696Z,100461.56
2023-05-14T10:58:41.630Z,100430.81
2023-05-14T11:01:11.216Z,100405.13
2023-05-14T11:03:44.887Z,100414.75
2023-05-14T11:06:14.933Z,100437.94
2023-05-14T11:08:43.786Z,100491.31
2023-05-14T11:11:13.045Z,100535.22
2023-05-14T11:13:42.252Z,100504.34
2023-05-14T11:16:22.950Z,100463.31
2023-05-14T11:18:55.279Z,100476.91
2023-05-14T11:21:23.333Z,100499.22
2023-05-14T11:23:51.596Z,100449.47
2023-05-14T11:26:21.829Z,100397.06
2023-05-14T11:28:49.987Z,100455.63
2023-05-14T11:31:18.001Z,100429.81
2023-05-14T11:33:45.886Z,100435.47
2023-05-14T11:36:13.995Z,100432.47
2023-05-14T11:38:48.741Z,100324.16
2023-05-14T11:41:16.519Z,100359.19
2023-05-14T11:43:45.765Z,100377.97
2023-05-14T11:46:18.068Z,100396.00
2023-05-14T11:48:46.003Z,100382.91
2023-05-14T11:51:14.022Z,100462.19
2023-05-14T11:53:42.101Z,100363.88
2023-05-14T11:56:10.164Z,100347.13
2023-05-14T11:58:38.089Z,100328.06
2023-05-14T12:01:07.426Z,100350.03
2023-05-14T12:03:36.313Z,100408.38
2023-05-14T12:06:08.208Z,100356.38
2023-05-14T12:08:36.278Z,100402.59
2023-05-14T12:11:04.553Z,100365.06
2023-05-14T12:13:35.432Z,100362.66
2023-05-14T12:16:03.894Z,100435.03
2023-05-14T12:18:34.229Z,100356.06
2023-05-14T12:21:04.449Z,100355.72
2023-05-14T12:23:33.053Z,100378.59
2023-05-14T12:26:02.910Z,100416.13
2023-05-14T12:28:31.028Z,100374.84
2023-05-14T12:30:59.647Z,100435.47
2023-05-14T12:33:28.501Z,100481.19
2023-05-14T12:36:07.414Z,100446.44
2023-05-14T12:38:47.981Z,100386.25
2023-05-14T12:41:15.801Z,100343.13
2023-05-14T12:43:44.635Z,100373.34
2023-05-14T12:46:12.651Z,100347.97
2023-05-14T12:48:40.536Z,100336.03
2023-05-14T12:51:09.742Z,100341.19
2023-05-14T12:53:37.596Z,100378.47
2023-05-14T12:56:06.107Z,100268.72
2023-05-14T12:58:33.891Z,100319.66
2023-05-14T13:01:01.911Z,100293.66
2023-05-14T13:03:29.750Z,100279.22
2023-05-14T13:05:57.589Z,100307.28
2023-05-14T13:08:27.351Z,100354.72
2023-05-14T13:10:56.480Z,100366.59
2023-05-14T13:13:24.886Z,100388.00
2023-05-14T13:15:53.941Z,100354.00
2023-05-14T13:18:21.856Z,100370.22
2023-05-14T13:20:53.164Z,100414.25
2023-05-14T13:23:21.033Z,100377.22
2023-05-14T13:25:50.781Z,100424.59
2023-05-14T13:28:19.628Z,100409.81
2023-05-14T13:31:07.736Z,100392.75
2023-05-14T13:33:37.097Z,100423.59
2023-05-14T13:36:05.797Z,100422.34
2023-05-14T13:38:34.322Z,100381.59
2023-05-14T13:41:03.861Z,100418.94
2023-05-14T13:43:32.075Z,100428.50
2023-05-14T13:46:00.306Z,100434.56
2023-05-14T13:48:28.785Z,100430.25
2023-05-14T13:50:56.698Z,100474.06
2023-05-14T13:53:26.137Z,100487.50
2023-05-14T13:55:58.107Z,100533.91
2023-05-14T13:58:28.194Z,100469.88
2023-05-14T14:00:56.654Z,100499.28
2023-05-14T14:03:24.525Z,100496.50
2023-05-14T14:05:52.728Z,100524.94
2023-05-14T14:08:23.314Z,100511.91
2023-05-14T14:10:52.022Z,100483.06
2023-05-14T14:13:21.197Z,100487.28
2023-05-14T14:15:51.166Z,100500.88
2023-05-14T14:18:19.157Z,100516.06
2023-05-14T14:20:46.897Z,100519.53
2023-05-14T14:23:16.311Z,100494.88
2023-05-14T14:25:44.370Z,100487.78
2023-05-14T14:28:12.486Z,100510.88
2023-05-14T14:30:40.556Z,100497.03
2023-05-14T14:33:10.057Z,100426.22
2023-05-14T14:35:37.939Z,100334.91
2023-05-14T14:38:05.720Z,100422.53
2023-05-14T14:40:34.351Z,100455.41
2023-05-14T14:43:02.303Z,100412.75
2023-05-14T14:45:30.221Z,100426.34
2023-05-14T14:48:31.445Z,100325.78
2023-05-14T14:50:59.332Z,100326.09
2023-05-14T14:53:27.125Z,100407.03
2023-05-14T14:55:55.136Z,100442.53
2023-05-14T14:58:23.653Z,100354.63
2023-05-14T15:00:53.987Z,100389.69
2023-05-14T15:03:22.733Z,100410.38
2023-05-14T15:05:53.260Z,100463.31
2023-05-14T15:08:21.840Z,100447.53
2023-05-14T15:10:49.716Z,100508.34
2023-05-14T15:13:17.655Z,100426.19
2023-05-14T15:15:45.540Z,100419.94
2023-05-14T15:18:13.489Z,100450.19
2023-05-14T15:20:41.326Z,100402.03
2023-05-14T15:23:11.544Z,100348.53
2023-05-14T15:25:40.366Z,100431.63
2023-05-14T15:28:08.124Z,100393.59
2023-05-14T15:30:36.264Z,100331.94
2023-05-14T15:33:04.251Z,100389.38
2023-05-14T15:35:32.161Z,100390.69
2023-05-14T15:38:00.025Z,100324.72
2023-05-14T15:40:29.582Z,100340.72
2023-05-14T15:42:57.433Z,100295.13
2023-05-14T15:45:25.318Z,100287.59
2023-05-14T15:47:53.208Z,100339.06
2023-05-14T15:50:21.549Z,100432.47
2023-05-14T15:52:49.793Z,100399.06
2023-05-14T15:55:17.788Z,100231.72
2023-05-14T15:57:47.081Z,100195.03
2023-05-14T16:00:15.528Z,100217.75
2023-05-14T16:02:43.545Z,100160.22
2023-05-14T16:05:11.436Z,100208.63
2023-05-14T16:07:39.503Z,100259.34
2023-05-14T16:10:08.380Z,100232.81
2023-05-14T16:12:36.378Z,100221.56
2023-05-14T16:15:07.854Z,100196.53
2023-05-14T16:17:35.992Z,100177.63
2023-05-14T16:20:04.839Z,100187.78
2023-05-14T16:22:34.676Z,100189.09
2023-05-14T16:25:03.530Z,100195.13
2023-05-14T16:27:31.616Z,100162.88
2023-05-14T16:29:59.474Z,100138.00
2023-05-14T16:32:28.792Z,100227.91
2023-05-14T16:34:56.726Z,100167.91
2023-05-14T16:37:26.598Z,100180.06
2023-05-14T16:39:54.923Z,100193.03
2023-05-14T16:42:22.742Z,100190.53
2023-05-14T16:44:50.528Z,100187.72
2023-05-14T16:47:18.378Z,100183.53
2023-05-14T16:49:47.488Z,100190.56
2023-05-14T16:52:15.415Z,100212.13
2023-05-14T16:54:43.216Z,100176.69
2023-05-14T16:57:11.047Z,100174.28
2023-05-14T16:59:38.835Z,100175.44
2023-05-14T17:02:07.064Z,100143.81
2023-05-14T17:04:38.783Z,100185.00
2023-05-14T17:07:08.129Z,100207.41
2023-05-14T17:09:35.971Z,100220.38
2023-05-14T17:12:03.911Z,100204.25
2023-05-14T17:14:31.772Z,100237.91
2023-05-14T17:16:59.526Z,100249.34
2023-05-14T17:19:27.284Z,100267.13
2023-05-14T17:21:55.102Z,100272.69
2023-05-14T17:24:24.278Z,100290.50
2023-05-14T17:26:52.063Z,100291.50
2023-05-14T17:29:19.994Z,100304.88
2023-05-14T17:31:48.258Z,100319.13
2023-05-14T17:34:16.246Z,100338.09
2023-05-14T17:36:44.089Z,100342.06
2023-05-14T17:39:11.888Z,100379.56
2023-05-14T17:41:41.992Z,100372.69
2023-05-14T17:44:12.084Z,100395.78
2023-05-14T17:46:41.577Z,100414.00
2023-05-14T17:49:09.614Z,100412.69
2023-05-14T17:51:37.356Z,100406.53
2023-05-14T17:54:05.281Z,100466.66
2023-05-14T17:56:33.235Z,100481.16
2023-05-14T17:59:02.751Z,100514.56
2023-05-14T18:01:30.809Z,100548.69
2023-05-14T18:03:58.839Z,100569.97
2023-05-14T18:06:26.730Z,100600.81
2023-05-14T18:08:54.631Z,100592.69
2023-05-14T18:11:22.443Z,100565.72
2023-05-14T18:13:50.255Z,100556.03
2023-05-14T18:16:19.514Z,100575.31
2023-05-14T18:18:47.713Z,100572.13
2023-05-14T18:21:16.284Z,100552.00
2023-05-14T18:23:44.392Z,100601.28
2023-05-14T18:26:12.238Z,100598.44
2023-05-14T18:28:40.093Z,100618.16
2023-05-14T18:31:08.899Z,100633.50
2023-05-14T18:33:38.232Z,100663.91
2023-05-14T18:36:06.453Z,100697.50
2023-05-14T18:38:34.206Z,100694.28
2023-05-14T18:41:02.074Z,100643.41
2023-05-14T18:43:29.998Z,100692.06
2023-05-14T18:45:57.912Z,100697.69
2023-05-14T18:48:26.349Z,100720.66
2023-05-14T18:50:55.508Z,100639.13
2023-05-14T18:53:23.274Z,100656.06
2023-05-14T18:55:51.134Z,100698.47
2023-05-14T18:58:18.982Z,100722.72
2023-05-14T19:00:47.009Z,100725.31
2023-05-14T19:03:15.177Z,100747.34
2023-05-14T19:05:43.000Z,100704.66
2023-05-14T19:08:12.112Z,100701.44
2023-05-14T19:10:39.985Z,100705.84
2023-05-14T19:13:10.402Z,100697.59
2023-05-14T19:15:38.428Z,100681.34
2023-05-14T19:18:06.445Z,100676.75
2023-05-14T19:20:34.330Z,100684.09
2023-05-14T19:23:02.041Z,100733.81
2023-05-14T19:25:31.246Z,100733.28
2023-05-14T19:28:01.536Z,100773.34
2023-05-14T19:30:29.456Z,100746.84
2023-05-14T19:32:58.226Z,100668.19
2023-05-14T19:35:26.225Z,100679.13
2023-05-14T19:37:54.079Z,100689.19
2023-05-14T19:40:21.807Z,100709.22
2023-05-14T19:42:51.128Z,100733.25
2023-05-14T19:45:18.838Z,100766.00
2023-05-14T19:47:46.704Z,100745.88
2023-05-14T19:50:14.701Z,100729.94
2023-05-14T19:52:42.480Z,100772.25
2023-05-14T19:55:10.522Z,100778.72
2023-05-14T19:57:38.989Z,100790.69
2023-05-14T20:00:10.473Z,100774.63
2023-05-14T20:02:40.932Z,100777.44
2023-05-14T20:05:10.570Z,100752.88
2023-05-14T20:07:40.394Z,100727.91
2023-05-14T20:10:09.450Z,100749.44
2023-05-14T20:12:37.274Z,100781.06
2023-05-14T20:15:05.640Z,100745.00
2023-05-14T20:17:34.777Z,100718.50
2023-05-14T20:20:03.024Z,100711.81
2023-05-14T20:22:30.784Z,100704.16
2023-05-14T20:24:58.514Z,100733.00
2023-05-14T20:27:26.303Z,100740.75
2023-05-14T20:29:54.207Z,100744.19
2023-05-14T20:32:24.736Z,100782.81
2023-05-14T20:34:54.422Z,100800.81
2023-05-14T20:37:23.959Z,100814.03
2023-05-14T20:39:53.075Z,100801.00
2023-05-14T20:42:21.074Z,100824.69
2023-05-14T20:44:49.699Z,100832.97
2023-05-14T20:47:20.366Z,100797.25
2023-05-14T20:49:48.288Z,100780.34
2023-05-14T20:52:17.843Z,100794.75
2023-05-14T20:54:45.755Z,100742.13
2023-05-14T20:57:15.256Z,100718.13
2023-05-14T20:59:43.375Z,100691.00
2023-05-14T21:02:11.826Z,100668.97
2023-05-14T21:04:39.967Z,100675.09
2023-05-14T21:07:07.971Z,100669.06
2023-05-14T21:09:37.169Z,100672.94
2023-05-14T21:12:05.613Z,100686.50
2023-05-14T21:14:33.369Z,100694.22
2023-05-14T21:17:01.181Z,100716.13
2023-05-14T21:19:29.034Z,100709.56
2023-05-14T21:21:56.718Z,100724.38
2023-05-14T21:24:24.437Z,100730.16
2023-05-14T21:26:53.751Z,100762.72
2023-05-14T21:29:21.615Z,100778.19
2023-05-14T21:31:50.199Z,100803.44
2023-05-14T21:34:18.069Z,100804.78
2023-05-14T21:36:46.814Z,100818.97
2023-05-14T21:39:15.724Z,100811.50
2023-05-14T21:41:43.554Z,100815.53
2023-05-14T21:44:12.784Z,100798.25
2023-05-14T21:46:40.536Z,100796.91
2023-05-14T21:49:08.458Z,100793.84
2023-05-14T21:51:36.231Z,100804.97
2023-05-14T21:54:04.076Z,100802.94
2023-05-14T21:56:32.108Z,100776.75
2023-05-14T21:58:59.974Z,100771.97
2023-05-14T22:01:29.424Z,100774.84
2023-05-14T22:03:58.006Z,100794.75
2023-05-14T22:06:26.177Z,100791.66
2023-05-14T22:08:54.042Z,100792.91
2023-05-14T22:11:22.370Z,100793.53
2023-05-14T22:13:50.110Z,100802.97
2023-05-14T22:16:17.956Z,100799.78
2023-05-14T22:18:47.248Z,100784.22
2023-05-14T22:21:15.129Z,100779.31
2023-05-14T22:23:42.942Z,100794.53
2023-05-14T22:26:10.691Z,100781.59
2023-05-14T22:28:42.832Z,100779.31
2023-05-14T22:31:10.977Z,100795.25
2023-05-14T22:33:38.767Z,100798.00
2023-05-14T22:36:08.763Z,100779.78
2023-05-14T22:38:38.180Z,100782.66
2023-05-14T22:41:06.044Z,100783.84
2023-05-14T22:43:33.796Z,100778.03
2023-05-14T22:46:01.700Z,100764.25
2023-05-14T22:48:29.481Z,100762.84
2023-05-14T22:50:57.206Z,100769.34
2023-05-14T22:53:26.392Z,100777.53
2023-05-14T22:55:54.138Z,100789.78
2023-05-14T22:58:21.932Z,100788.88
2023-05-14T23:00:49.697Z,100781.31
2023-05-14T23:03:17.576Z,100768.63
2023-05-14T23:05:45.361Z,100779.41
2023-05-14T23:08:13.230Z,100771.81
2023-05-14T23:10:42.387Z,100760.88
2023-05-14T23:13:10.209Z,100757.75
2023-05-14T23:15:38.778Z,100763.22
2023-05-14T23:18:06.915Z,100765.78
2023-05-14T23:20:34.721Z,100759.19
2023-05-14T23:23:02.553Z,100762.88
2023-05-14T23:25:30.391Z,100749.22
2023-05-14T23:27:59.476Z,100754.03
2023-05-14T23:30:27.272Z,100751.19
2023-05-14T23:32:55.032Z,100760.41
2023-05-14T23:35:23.090Z,100762.13
2023-05-14T23:37:51.243Z,100764.81
2023-05-14T23:40:21.351Z,100767.47
2023-05-14T23:42:49.096Z,100765.91
2023-05-14T23:45:18.397Z,100761.09
2023-05-14T23:47:46.287Z,100752.81
2023-05-14T23:50:14.121Z,100749.22
2023-05-14T23:52:42.051Z,100722.78
2023-05-14T23:55:10.738Z,100727.03
2023-05-14T23:57:38.647Z,100707.00
